This is the latest recevied weather packets stored in our database for station/object KL7LK-13. If no packets are shown the sender has not sent any weather packets the latest 10 day(s).
| Time | Temp. | Humidity | Pressure | Rain* | Wind** | Luminosity | Snow |
|---|---|---|---|---|---|---|---|
| 1777108309 | 6.67° C | 68% | 1036.3 hPa | - | - | 0 W/m² | - |
| 1777104219 | 6.11° C | 66% | 1035.9 hPa | - | - | 0 W/m² | - |
| 1777103600 | 6.11° C | 64% | 1036 hPa | - | - | 0 W/m² | - |
| 1777102980 | 6.11° C | 65% | 1036 hPa | - | - | 0 W/m² | - |
| 1777100006 | 6.11° C | 65% | 1036.3 hPa | - | - | 0 W/m² | - |
| 1777097527 | 5.56° C | 69% | 1036.3 hPa | - | - | 0 W/m² | - |
| 1777096908 | 6.11° C | 68% | 1036.4 hPa | - | - | 1 W/m² | - |
| 1777091575 | 7.22° C | 62% | 1036.3 hPa | - | - | 30 W/m² | - |
| 1777090955 | 7.78° C | 60% | 1036.4 hPa | - | - | 34 W/m² | - |
| 1777074833 | 11.11° C | 49% | 1036.1 hPa | - | - | 130 W/m² | - |
| 1777072974 | 12.22° C | 47% | 1036 hPa | - | - | 221 W/m² | - |
| 1777072355 | 12.22° C | 45% | 1036.2 hPa | - | - | 309 W/m² | - |
| 1777066898 | 12.22° C | 49% | 1036.1 hPa | - | - | 479 W/m² | - |
| 1777066278 | 12.22° C | 49% | 1036 hPa | - | - | 331 W/m² | - |
| 1777063922 | 11.67° C | 51% | 1035.7 hPa | - | - | 284 W/m² | - |
| 1777063323 | 11.11° C | 54% | 1035.7 hPa | - | - | 349 W/m² | - |
| 1777062683 | 10.56° C | 56% | 1035.7 hPa | - | - | 254 W/m² | - |
| 1777062186 | 10.56° C | 57% | 1035.6 hPa | - | - | 215 W/m² | - |
| 1777057353 | 10.56° C | 56% | 1034.9 hPa | - | - | 161 W/m² | - |
| 1777054378 | 10° C | 57% | 1034.6 hPa | - | - | 201 W/m² | - |
| 1777053139 | 10.56° C | 56% | 1034.2 hPa | - | - | 252 W/m² | - |
* Rain since midnight (hover to see other rain measurements)
** Current wind speed in m/s (hover to see current wind gust speed)